sensor_id;sensor_type;location;lat;lon;timestamp;pressure;altitude;pressure_sealevel;temperature;humidity
21824;BME280;11074;48.596;9.238;2023-01-29T00:01:35;99310.53;;;3.65;76.34
21824;BME280;11074;48.596;9.238;2023-01-29T00:04:00;99311.97;;;3.67;76.84
21824;BME280;11074;48.596;9.238;2023-01-29T00:06:26;99313.00;;;3.66;77.29
21824;BME280;11074;48.596;9.238;2023-01-29T00:08:52;99314.00;;;3.65;76.33
21824;BME280;11074;48.596;9.238;2023-01-29T00:11:18;99317.19;;;3.76;76.32
21824;BME280;11074;48.596;9.238;2023-01-29T00:13:45;99310.91;;;3.77;76.11
21824;BME280;11074;48.596;9.238;2023-01-29T00:16:11;99311.19;;;3.82;77.14
21824;BME280;11074;48.596;9.238;2023-01-29T00:18:38;99308.75;;;3.80;76.01
21824;BME280;11074;48.596;9.238;2023-01-29T00:21:18;99299.78;;;3.81;75.55
21824;BME280;11074;48.596;9.238;2023-01-29T00:23:45;99303.63;;;3.79;75.82
21824;BME280;11074;48.596;9.238;2023-01-29T00:26:11;99302.44;;;3.81;76.14
21824;BME280;11074;48.596;9.238;2023-01-29T00:28:38;99311.91;;;3.76;75.09
21824;BME280;11074;48.596;9.238;2023-01-29T00:31:14;99313.91;;;3.74;75.03
21824;BME280;11074;48.596;9.238;2023-01-29T00:33:40;99312.38;;;3.64;74.91
21824;BME280;11074;48.596;9.238;2023-01-29T00:36:13;99312.06;;;3.59;75.20
21824;BME280;11074;48.596;9.238;2023-01-29T00:38:39;99305.72;;;3.68;75.93
21824;BME280;11074;48.596;9.238;2023-01-29T00:41:06;99304.72;;;3.70;75.03
21824;BME280;11074;48.596;9.238;2023-01-29T00:43:51;99315.94;;;3.72;74.93
21824;BME280;11074;48.596;9.238;2023-01-29T00:46:35;99302.06;;;3.70;75.91
21824;BME280;11074;48.596;9.238;2023-01-29T00:49:01;99296.31;;;3.66;74.95
21824;BME280;11074;48.596;9.238;2023-01-29T00:51:27;99291.28;;;3.56;75.30
21824;BME280;11074;48.596;9.238;2023-01-29T00:53:52;99298.56;;;3.54;74.72
21824;BME280;11074;48.596;9.238;2023-01-29T00:56:27;99292.63;;;3.52;74.93
21824;BME280;11074;48.596;9.238;2023-01-29T00:58:53;99307.50;;;3.53;74.95
21824;BME280;11074;48.596;9.238;2023-01-29T01:01:20;99305.22;;;3.65;75.63
21824;BME280;11074;48.596;9.238;2023-01-29T01:04:07;99306.97;;;3.73;75.62
21824;BME280;11074;48.596;9.238;2023-01-29T01:06:40;99297.69;;;3.77;75.93
21824;BME280;11074;48.596;9.238;2023-01-29T01:09:07;99306.81;;;3.74;74.78
21824;BME280;11074;48.596;9.238;2023-01-29T01:11:51;99301.13;;;3.48;73.98
21824;BME280;11074;48.596;9.238;2023-01-29T01:14:19;99300.03;;;3.57;75.23
21824;BME280;11074;48.596;9.238;2023-01-29T01:16:47;99304.44;;;3.64;75.91
21824;BME280;11074;48.596;9.238;2023-01-29T01:19:14;99296.31;;;3.66;75.53
21824;BME280;11074;48.596;9.238;2023-01-29T01:21:41;99295.13;;;3.68;75.00
21824;BME280;11074;48.596;9.238;2023-01-29T01:24:11;99306.63;;;3.76;74.92
21824;BME280;11074;48.596;9.238;2023-01-29T01:26:37;99296.72;;;3.78;75.01
21824;BME280;11074;48.596;9.238;2023-01-29T01:29:03;99292.59;;;3.75;75.40
21824;BME280;11074;48.596;9.238;2023-01-29T01:31:29;99304.25;;;3.81;75.10
21824;BME280;11074;48.596;9.238;2023-01-29T01:33:55;99302.88;;;3.70;74.58
21824;BME280;11074;48.596;9.238;2023-01-29T01:36:21;99302.34;;;3.75;75.02
21824;BME280;11074;48.596;9.238;2023-01-29T01:38:47;99282.53;;;3.71;74.65
21824;BME280;11074;48.596;9.238;2023-01-29T01:41:18;99285.03;;;3.72;73.59
21824;BME280;11074;48.596;9.238;2023-01-29T01:43:51;99287.31;;;3.75;74.19
21824;BME280;11074;48.596;9.238;2023-01-29T01:46:17;99285.81;;;3.73;74.61
21824;BME280;11074;48.596;9.238;2023-01-29T01:48:49;99281.28;;;3.66;74.13
21824;BME280;11074;48.596;9.238;2023-01-29T01:51:18;99284.19;;;3.72;73.86
21824;BME280;11074;48.596;9.238;2023-01-29T01:54:13;99284.84;;;3.74;75.04
21824;BME280;11074;48.596;9.238;2023-01-29T01:56:51;99272.78;;;3.71;74.23
21824;BME280;11074;48.596;9.238;2023-01-29T01:59:21;99276.91;;;3.74;74.49
21824;BME280;11074;48.596;9.238;2023-01-29T02:01:52;99271.81;;;3.72;73.96
21824;BME280;11074;48.596;9.238;2023-01-29T02:04:24;99284.50;;;3.39;74.44
21824;BME280;11074;48.596;9.238;2023-01-29T02:07:14;99285.78;;;3.43;74.91
21824;BME280;11074;48.596;9.238;2023-01-29T02:10:12;99289.25;;;3.44;75.48
21824;BME280;11074;48.596;9.238;2023-01-29T02:12:42;99283.66;;;3.24;75.52
21824;BME280;11074;48.596;9.238;2023-01-29T02:15:09;99284.09;;;3.28;75.10
21824;BME280;11074;48.596;9.238;2023-01-29T02:17:35;99281.72;;;3.33;76.02
21824;BME280;11074;48.596;9.238;2023-01-29T02:20:17;99290.63;;;3.40;75.67
21824;BME280;11074;48.596;9.238;2023-01-29T02:31:28;99295.84;;;3.62;74.79
21824;BME280;11074;48.596;9.238;2023-01-29T02:34:07;99295.84;;;3.62;75.02
21824;BME280;11074;48.596;9.238;2023-01-29T02:36:44;99295.00;;;3.62;75.39
21824;BME280;11074;48.596;9.238;2023-01-29T02:42:22;99304.13;;;3.59;75.11
21824;BME280;11074;48.596;9.238;2023-01-29T02:45:09;99305.84;;;3.52;75.45
21824;BME280;11074;48.596;9.238;2023-01-29T02:47:58;99300.84;;;3.57;76.04
21824;BME280;11074;48.596;9.238;2023-01-29T02:50:35;99303.22;;;3.52;74.10
21824;BME280;11074;48.596;9.238;2023-01-29T02:53:16;99303.22;;;3.52;75.17
21824;BME280;11074;48.596;9.238;2023-01-29T02:56:14;99300.03;;;3.57;75.62
21824;BME280;11074;48.596;9.238;2023-01-29T02:59:16;99302.59;;;3.65;75.10
21824;BME280;11074;48.596;9.238;2023-01-29T03:02:03;99294.66;;;3.65;75.73
21824;BME280;11074;48.596;9.238;2023-01-29T03:04:36;99303.69;;;3.71;74.31
21824;BME280;11074;48.596;9.238;2023-01-29T03:07:15;99305.97;;;3.74;74.90
21824;BME280;11074;48.596;9.238;2023-01-29T03:10:10;99306.81;;;3.74;74.29
21824;BME280;11074;48.596;9.238;2023-01-29T03:12:39;99299.44;;;3.70;73.91
21824;BME280;11074;48.596;9.238;2023-01-29T03:15:18;99293.13;;;3.71;74.41
21824;BME280;11074;48.596;9.238;2023-01-29T03:18:13;99296.59;;;3.71;74.45
21824;BME280;11074;48.596;9.238;2023-01-29T03:20:46;99290.31;;;3.72;74.41
21824;BME280;11074;48.596;9.238;2023-01-29T03:23:28;99288.84;;;3.70;73.37
21824;BME280;11074;48.596;9.238;2023-01-29T03:26:15;99277.44;;;3.69;74.31
21824;BME280;11074;48.596;9.238;2023-01-29T03:29:03;99285.03;;;3.72;74.27
21824;BME280;11074;48.596;9.238;2023-01-29T03:31:51;99284.34;;;3.70;74.80
21824;BME280;11074;48.596;9.238;2023-01-29T03:34:39;99294.94;;;3.70;73.83
21824;BME280;11074;48.596;9.238;2023-01-29T03:37:36;99296.31;;;3.66;74.20
21824;BME280;11074;48.596;9.238;2023-01-29T03:40:06;99295.13;;;3.68;74.99
21824;BME280;11074;48.596;9.238;2023-01-29T03:48:37;99296.41;;;3.73;75.08
21824;BME280;11074;48.596;9.238;2023-01-29T03:57:34;99284.28;;;3.63;74.39
21824;BME280;11074;48.596;9.238;2023-01-29T04:00:19;99299.94;;;3.65;74.19
21824;BME280;11074;48.596;9.238;2023-01-29T04:05:53;99299.66;;;3.60;73.35
21824;BME280;11074;48.596;9.238;2023-01-29T04:08:37;99296.66;;;3.63;74.23
21824;BME280;11074;48.596;9.238;2023-01-29T04:11:13;99304.59;;;3.63;74.92
21824;BME280;11074;48.596;9.238;2023-01-29T04:13:39;99300.50;;;3.60;73.97
21824;BME280;11074;48.596;9.238;2023-01-29T04:16:13;99290.63;;;3.54;73.30
21824;BME280;11074;48.596;9.238;2023-01-29T04:18:46;99297.22;;;3.58;73.57
21824;BME280;11074;48.596;9.238;2023-01-29T04:21:13;99302.59;;;3.65;74.72
21824;BME280;11074;48.596;9.238;2023-01-29T04:23:39;99298.69;;;3.61;74.17
21824;BME280;11074;48.596;9.238;2023-01-29T04:29:39;99293.88;;;3.64;73.46
21824;BME280;11074;48.596;9.238;2023-01-29T04:37:35;99299.56;;;3.53;73.84
21824;BME280;11074;48.596;9.238;2023-01-29T04:40:42;99302.03;;;3.55;74.16
21824;BME280;11074;48.596;9.238;2023-01-29T04:46:20;99300.56;;;3.52;74.88
21824;BME280;11074;48.596;9.238;2023-01-29T04:49:25;99301.88;;;3.56;75.47
21824;BME280;11074;48.596;9.238;2023-01-29T04:52:23;99302.22;;;3.53;75.14
21824;BME280;11074;48.596;9.238;2023-01-29T04:55:07;99296.28;;;3.51;74.98
21824;BME280;11074;48.596;9.238;2023-01-29T04:57:52;99293.63;;;3.51;74.73
21824;BME280;11074;48.596;9.238;2023-01-29T05:00:38;99293.53;;;3.45;74.77
21824;BME280;11074;48.596;9.238;2023-01-29T05:03:05;99292.16;;;3.49;73.43
21824;BME280;11074;48.596;9.238;2023-01-29T05:05:42;99295.75;;;3.56;73.89
21824;BME280;11074;48.596;9.238;2023-01-29T05:08:13;99287.44;;;3.44;74.09
21824;BME280;11074;48.596;9.238;2023-01-29T05:10:41;99292.63;;;3.38;74.25
21824;BME280;11074;48.596;9.238;2023-01-29T05:13:13;99303.75;;;3.48;74.63
21824;BME280;11074;48.596;9.238;2023-01-29T05:16:16;99292.16;;;3.49;74.21
21824;BME280;11074;48.596;9.238;2023-01-29T05:18:45;99303.84;;;3.54;73.46
21824;BME280;11074;48.596;9.238;2023-01-29T05:21:11;99300.56;;;3.52;73.85
21824;BME280;11074;48.596;9.238;2023-01-29T05:23:37;99297.56;;;3.55;73.60
21824;BME280;11074;48.596;9.238;2023-01-29T05:26:03;99292.91;;;3.57;74.20
21824;BME280;11074;48.596;9.238;2023-01-29T05:28:29;99297.03;;;3.60;74.77
21824;BME280;11074;48.596;9.238;2023-01-29T05:30:56;99299.50;;;3.61;74.72
21824;BME280;11074;48.596;9.238;2023-01-29T05:33:30;99289.63;;;3.55;74.34
21824;BME280;11074;48.596;9.238;2023-01-29T05:35:58;99297.03;;;3.60;73.94
21824;BME280;11074;48.596;9.238;2023-01-29T05:38:25;99296.88;;;3.61;72.74
21824;BME280;11074;48.596;9.238;2023-01-29T05:40:53;99295.22;;;3.60;73.62
21824;BME280;11074;48.596;9.238;2023-01-29T05:43:22;99302.16;;;3.61;74.27
21824;BME280;11074;48.596;9.238;2023-01-29T05:45:59;99299.38;;;3.55;73.60
21824;BME280;11074;48.596;9.238;2023-01-29T05:48:27;99301.75;;;3.50;73.60
21824;BME280;11074;48.596;9.238;2023-01-29T05:50:59;99295.19;;;3.46;74.41
21824;BME280;11074;48.596;9.238;2023-01-29T05:53:28;99298.91;;;3.51;74.28
21824;BME280;11074;48.596;9.238;2023-01-29T05:55:54;99291.72;;;3.45;73.82
21824;BME280;11074;48.596;9.238;2023-01-29T05:58:22;99288.13;;;3.38;73.80
21824;BME280;11074;48.596;9.238;2023-01-29T06:00:50;99297.44;;;3.34;73.33
21824;BME280;11074;48.596;9.238;2023-01-29T06:03:16;99298.88;;;3.37;73.48
21824;BME280;11074;48.596;9.238;2023-01-29T06:05:41;99284.50;;;3.39;73.38
21824;BME280;11074;48.596;9.238;2023-01-29T06:08:07;99285.59;;;3.45;73.87
21824;BME280;11074;48.596;9.238;2023-01-29T06:10:33;99256.06;;;3.41;73.47
21824;BME280;11074;48.596;9.238;2023-01-29T06:13:02;99266.75;;;3.48;73.15
21824;BME280;11074;48.596;9.238;2023-01-29T06:15:28;99258.00;;;3.47;73.01
21824;BME280;11074;48.596;9.238;2023-01-29T06:17:55;99266.13;;;3.46;73.78
21824;BME280;11074;48.596;9.238;2023-01-29T06:20:21;99263.28;;;3.47;74.21
21824;BME280;11074;48.596;9.238;2023-01-29T06:22:47;99256.69;;;3.43;73.69
21824;BME280;11074;48.596;9.238;2023-01-29T06:25:13;99270.22;;;3.48;74.03
21824;BME280;11074;48.596;9.238;2023-01-29T06:27:39;99268.84;;;3.52;74.13
21824;BME280;11074;48.596;9.238;2023-01-29T06:30:06;99267.38;;;3.50;73.72
21824;BME280;11074;48.596;9.238;2023-01-29T06:32:31;99265.72;;;3.49;74.38
21824;BME280;11074;48.596;9.238;2023-01-29T06:34:57;99276.16;;;3.50;74.01
21824;BME280;11074;48.596;9.238;2023-01-29T06:37:23;99276.97;;;3.51;74.33
21824;BME280;11074;48.596;9.238;2023-01-29T06:39:49;99280.97;;;3.47;74.29
21824;BME280;11074;48.596;9.238;2023-01-29T06:42:15;99287.53;;;3.51;74.31
21824;BME280;11074;48.596;9.238;2023-01-29T06:44:40;99289.00;;;3.53;74.13
21824;BME280;11074;48.596;9.238;2023-01-29T06:47:06;99291.66;;;3.53;74.36
21824;BME280;11074;48.596;9.238;2023-01-29T06:49:32;99291.66;;;3.53;74.61
21824;BME280;11074;48.596;9.238;2023-01-29T06:51:57;99275.50;;;3.48;74.46
21824;BME280;11074;48.596;9.238;2023-01-29T06:54:23;99273.66;;;3.49;74.51
21824;BME280;11074;48.596;9.238;2023-01-29T06:56:50;99280.88;;;3.40;73.14
21824;BME280;11074;48.596;9.238;2023-01-29T06:59:16;99303.69;;;3.33;72.84
21824;BME280;11074;48.596;9.238;2023-01-29T07:01:42;99305.00;;;3.37;72.95
21824;BME280;11074;48.596;9.238;2023-01-29T07:04:09;99300.63;;;3.44;73.08
21824;BME280;11074;48.596;9.238;2023-01-29T07:06:36;99295.34;;;3.44;72.78
21824;BME280;11074;48.596;9.238;2023-01-29T07:09:03;99302.28;;;3.45;72.01
21824;BME280;11074;48.596;9.238;2023-01-29T07:11:29;99302.28;;;3.45;72.45
21824;BME280;11074;48.596;9.238;2023-01-29T07:13:54;99304.59;;;3.48;73.14
21824;BME280;11074;48.596;9.238;2023-01-29T07:16:20;99312.69;;;3.47;72.67
21824;BME280;11074;48.596;9.238;2023-01-29T07:18:46;99307.56;;;3.45;72.68
21824;BME280;11074;48.596;9.238;2023-01-29T07:21:11;99310.72;;;3.41;73.36
21824;BME280;11074;48.596;9.238;2023-01-29T07:23:37;99310.63;;;3.34;72.92
21824;BME280;11074;48.596;9.238;2023-01-29T07:26:05;99306.25;;;3.27;71.29
21824;BME280;11074;48.596;9.238;2023-01-29T07:28:30;99308.06;;;3.26;70.42
21824;BME280;11074;48.596;9.238;2023-01-29T07:30:59;99321.28;;;3.26;70.53
21824;BME280;11074;48.596;9.238;2023-01-29T07:33:25;99318.00;;;3.24;70.59
21824;BME280;11074;48.596;9.238;2023-01-29T07:35:51;99310.69;;;3.26;71.20
21824;BME280;11074;48.596;9.238;2023-01-29T07:38:17;99311.41;;;3.20;70.49
21824;BME280;11074;48.596;9.238;2023-01-29T07:40:43;99318.88;;;3.17;70.73
21824;BME280;11074;48.596;9.238;2023-01-29T07:43:10;99314.28;;;3.11;71.04
21824;BME280;11074;48.596;9.238;2023-01-29T07:45:37;99312.00;;;3.08;70.47
21824;BME280;11074;48.596;9.238;2023-01-29T07:48:05;99326.06;;;3.23;69.70
21824;BME280;11074;48.596;9.238;2023-01-29T07:50:33;99327.38;;;3.27;71.87
21824;BME280;11074;48.596;9.238;2023-01-29T07:53:00;99336.44;;;3.32;72.49
21824;BME280;11074;48.596;9.238;2023-01-29T07:55:26;99337.22;;;3.33;71.05
21824;BME280;11074;48.596;9.238;2023-01-29T07:58:01;99330.78;;;3.35;71.31
21824;BME280;11074;48.596;9.238;2023-01-29T08:00:29;99333.72;;;3.40;71.36
21824;BME280;11074;48.596;9.238;2023-01-29T08:03:06;99341.41;;;3.50;71.11
21824;BME280;11074;48.596;9.238;2023-01-29T08:05:34;99339.94;;;3.47;69.98
21824;BME280;11074;48.596;9.238;2023-01-29T08:07:59;99339.59;;;3.50;69.94
21824;BME280;11074;48.596;9.238;2023-01-29T08:10:26;99345.50;;;3.52;70.67
21824;BME280;11074;48.596;9.238;2023-01-29T08:12:58;99343.22;;;3.49;71.98
21824;BME280;11074;48.596;9.238;2023-01-29T08:15:25;99353.78;;;3.49;72.11
21824;BME280;11074;48.596;9.238;2023-01-29T08:17:52;99351.13;;;3.49;73.00
21824;BME280;11074;48.596;9.238;2023-01-29T08:20:18;99342.38;;;3.49;72.61
21824;BME280;11074;48.596;9.238;2023-01-29T08:22:45;99337.56;;;3.52;71.62
21824;BME280;11074;48.596;9.238;2023-01-29T08:25:11;99340.50;;;3.57;70.73
21824;BME280;11074;48.596;9.238;2023-01-29T08:27:38;99340.63;;;3.64;71.25
21824;BME280;11074;48.596;9.238;2023-01-29T08:30:06;99329.22;;;3.63;71.54
21824;BME280;11074;48.596;9.238;2023-01-29T08:32:32;99331.38;;;3.60;70.03
21824;BME280;11074;48.596;9.238;2023-01-29T08:34:58;99331.31;;;3.53;69.65
21824;BME280;11074;48.596;9.238;2023-01-29T08:37:23;99342.50;;;3.55;69.22
21824;BME280;11074;48.596;9.238;2023-01-29T08:39:49;99340.56;;;3.49;69.93
21824;BME280;11074;48.596;9.238;2023-01-29T08:42:15;99350.78;;;3.52;71.17
21824;BME280;11074;48.596;9.238;2023-01-29T08:44:40;99354.41;;;3.51;71.29
21824;BME280;11074;48.596;9.238;2023-01-29T08:47:06;99359.63;;;3.59;69.62
21824;BME280;11074;48.596;9.238;2023-01-29T08:49:32;99358.94;;;3.65;69.11
21824;BME280;11074;48.596;9.238;2023-01-29T08:51:58;99352.13;;;3.71;68.84
21824;BME280;11074;48.596;9.238;2023-01-29T08:54:24;99354.88;;;3.78;70.27
21824;BME280;11074;48.596;9.238;2023-01-29T08:56:50;99361.50;;;3.74;68.91
21824;BME280;11074;48.596;9.238;2023-01-29T08:59:16;99365.16;;;3.73;68.75
21824;BME280;11074;48.596;9.238;2023-01-29T09:01:42;99364.56;;;3.62;67.68
21824;BME280;11074;48.596;9.238;2023-01-29T09:04:08;99370.88;;;3.61;68.21
21824;BME280;11074;48.596;9.238;2023-01-29T09:06:33;99364.22;;;3.65;69.54
21824;BME280;11074;48.596;9.238;2023-01-29T09:08:59;99375.91;;;3.71;68.89
21824;BME280;11074;48.596;9.238;2023-01-29T09:11:25;99372.56;;;3.77;70.27
21824;BME280;11074;48.596;9.238;2023-01-29T09:13:51;99377.84;;;3.77;67.48
21824;BME280;11074;48.596;9.238;2023-01-29T09:16:17;99381.59;;;3.83;68.64
21824;BME280;11074;48.596;9.238;2023-01-29T09:18:43;99382.31;;;3.77;67.63
21824;BME280;11074;48.596;9.238;2023-01-29T09:21:08;99386.97;;;3.75;67.83
21824;BME280;11074;48.596;9.238;2023-01-29T09:23:34;99384.13;;;3.76;68.54
21824;BME280;11074;48.596;9.238;2023-01-29T09:26:00;99379.66;;;3.77;67.85
21824;BME280;11074;48.596;9.238;2023-01-29T09:28:26;99388.34;;;3.85;67.76
21824;BME280;11074;48.596;9.238;2023-01-29T09:30:52;99392.47;;;3.88;68.02
21824;BME280;11074;48.596;9.238;2023-01-29T09:33:18;99382.31;;;3.91;67.31
21824;BME280;11074;48.596;9.238;2023-01-29T09:35:44;99384.47;;;3.96;67.22
21824;BME280;11074;48.596;9.238;2023-01-29T09:38:13;99383.28;;;3.98;67.72
21824;BME280;11074;48.596;9.238;2023-01-29T09:43:42;99377.16;;;3.98;66.76
21824;BME280;11074;48.596;9.238;2023-01-29T09:48:45;99377.34;;;3.96;65.81
21824;BME280;11074;48.596;9.238;2023-01-29T09:51:33;99377.44;;;4.03;66.86
21824;BME280;11074;48.596;9.238;2023-01-29T09:54:20;99379.44;;;4.01;66.84
21824;BME280;11074;48.596;9.238;2023-01-29T09:56:52;99379.06;;;3.89;65.79
21824;BME280;11074;48.596;9.238;2023-01-29T09:59:24;99374.41;;;3.91;67.50
21824;BME280;11074;48.596;9.238;2023-01-29T10:05:16;99367.00;;;3.87;66.87
21824;BME280;11074;48.596;9.238;2023-01-29T10:08:45;99367.13;;;3.93;67.37
21824;BME280;11074;48.596;9.238;2023-01-29T10:14:52;99353.94;;;3.71;65.84
21824;BME280;11074;48.596;9.238;2023-01-29T10:17:49;99346.69;;;3.87;65.85
21824;BME280;11074;48.596;9.238;2023-01-29T10:23:36;99324.63;;;4.09;65.42
21824;BME280;11074;48.596;9.238;2023-01-29T10:26:03;99317.72;;;4.23;65.76
21824;BME280;11074;48.596;9.238;2023-01-29T10:28:41;99305.06;;;4.40;65.31
21824;BME280;11074;48.596;9.238;2023-01-29T10:31:24;99301.44;;;4.41;64.26
21824;BME280;11074;48.596;9.238;2023-01-29T10:33:58;99306.00;;;4.47;63.60
21824;BME280;11074;48.596;9.238;2023-01-29T10:36:53;99295.31;;;4.55;64.96
21824;BME280;11074;48.596;9.238;2023-01-29T10:39:25;99306.22;;;4.66;64.23
21824;BME280;11074;48.596;9.238;2023-01-29T10:42:17;99312.53;;;4.65;64.36
21824;BME280;11074;48.596;9.238;2023-01-29T10:47:43;99315.56;;;4.62;63.20
21824;BME280;11074;48.596;9.238;2023-01-29T10:50:19;99316.56;;;4.61;64.23
21824;BME280;11074;48.596;9.238;2023-01-29T10:59:22;99305.38;;;4.80;63.89
21824;BME280;11074;48.596;9.238;2023-01-29T11:01:50;99299.34;;;4.86;64.36
21824;BME280;11074;48.596;9.238;2023-01-29T11:04:16;99302.41;;;4.90;63.26
21824;BME280;11074;48.596;9.238;2023-01-29T11:06:42;99301.03;;;4.94;63.99
21824;BME280;11074;48.596;9.238;2023-01-29T11:09:35;99297.94;;;4.90;63.43
21824;BME280;11074;48.596;9.238;2023-01-29T11:12:15;99293.09;;;4.94;62.91
21824;BME280;11074;48.596;9.238;2023-01-29T11:15:24;99295.53;;;4.96;62.42
21824;BME280;11074;48.596;9.238;2023-01-29T11:20:40;99296.25;;;5.04;62.76
21824;BME280;11074;48.596;9.238;2023-01-29T11:23:28;99293.97;;;5.01;60.90
21824;BME280;11074;48.596;9.238;2023-01-29T11:25:56;99286.28;;;5.06;62.81
21824;BME280;11074;48.596;9.238;2023-01-29T11:28:48;99291.66;;;5.13;62.39
21824;BME280;11074;48.596;9.238;2023-01-29T11:31:34;99302.03;;;5.14;62.99
21824;BME280;11074;48.596;9.238;2023-01-29T11:34:22;99293.66;;;5.11;62.04
21824;BME280;11074;48.596;9.238;2023-01-29T11:37:03;99289.88;;;4.99;61.68
21824;BME280;11074;48.596;9.238;2023-01-29T11:39:43;99286.84;;;5.02;62.17
21824;BME280;11074;48.596;9.238;2023-01-29T11:42:20;99281.78;;;5.07;62.29
21824;BME280;11074;48.596;9.238;2023-01-29T11:44:46;99290.81;;;5.12;61.28
21824;BME280;11074;48.596;9.238;2023-01-29T11:47:17;99300.06;;;5.16;63.16
21824;BME280;11074;48.596;9.238;2023-01-29T11:49:56;99287.22;;;5.20;61.84
21824;BME280;11074;48.596;9.238;2023-01-29T11:52:33;99279.66;;;5.17;62.19
21824;BME280;11074;48.596;9.238;2023-01-29T11:55:12;99276.69;;;5.26;62.27
21824;BME280;11074;48.596;9.238;2023-01-29T11:57:45;99265.94;;;5.34;62.96
21824;BME280;11074;48.596;9.238;2023-01-29T12:00:25;99254.31;;;5.35;61.54
21824;BME280;11074;48.596;9.238;2023-01-29T12:03:05;99256.84;;;5.43;62.81
21824;BME280;11074;48.596;9.238;2023-01-29T12:05:38;99255.00;;;5.44;62.94
21824;BME280;11074;48.596;9.238;2023-01-29T12:08:16;99252.63;;;5.28;61.06
21824;BME280;11074;48.596;9.238;2023-01-29T12:10:43;99258.38;;;5.31;61.39
21824;BME280;11074;48.596;9.238;2023-01-29T12:15:37;99250.22;;;5.33;62.61
21824;BME280;11074;48.596;9.238;2023-01-29T12:21:14;99243.81;;;5.21;62.27
21824;BME280;11074;48.596;9.238;2023-01-29T12:26:36;99228.09;;;5.19;61.30
21824;BME280;11074;48.596;9.238;2023-01-29T12:38:18;99188.19;;;5.55;60.94
21824;BME280;11074;48.596;9.238;2023-01-29T12:40:54;99179.47;;;5.68;61.96
21824;BME280;11074;48.596;9.238;2023-01-29T12:46:02;99159.22;;;5.88;60.83
21824;BME280;11074;48.596;9.238;2023-01-29T12:48:33;99159.34;;;5.80;59.76
21824;BME280;11074;48.596;9.238;2023-01-29T12:51:15;99140.75;;;5.73;60.57
21824;BME280;11074;48.596;9.238;2023-01-29T12:53:56;99140.53;;;5.68;60.72
21824;BME280;11074;48.596;9.238;2023-01-29T12:56:38;99133.41;;;5.75;60.79
21824;BME280;11074;48.596;9.238;2023-01-29T12:59:26;99120.78;;;5.84;60.35
21824;BME280;11074;48.596;9.238;2023-01-29T13:01:58;99117.16;;;5.91;59.63
21824;BME280;11074;48.596;9.238;2023-01-29T13:04:41;99110.69;;;6.00;60.64
21824;BME280;11074;48.596;9.238;2023-01-29T13:07:25;99105.81;;;6.04;60.34
21824;BME280;11074;48.596;9.238;2023-01-29T13:10:03;99103.34;;;5.96;60.31
21824;BME280;11074;48.596;9.238;2023-01-29T13:12:33;99099.81;;;5.89;60.05
21824;BME280;11074;48.596;9.238;2023-01-29T13:15:16;99109.19;;;5.85;60.63
21824;BME280;11074;48.596;9.238;2023-01-29T13:18:31;99102.59;;;5.81;59.90
21824;BME280;11074;48.596;9.238;2023-01-29T13:20:59;99114.66;;;5.83;59.97
21824;BME280;11074;48.596;9.238;2023-01-29T13:23:35;99111.38;;;5.75;59.50
21824;BME280;11074;48.596;9.238;2023-01-29T13:26:02;99117.47;;;5.75;60.84
21824;BME280;11074;48.596;9.238;2023-01-29T13:28:30;99110.69;;;5.60;60.46
21824;BME280;11074;48.596;9.238;2023-01-29T13:31:32;99112.31;;;5.61;60.50
21824;BME280;11074;48.596;9.238;2023-01-29T13:36:54;99103.34;;;5.62;60.35
21824;BME280;11074;48.596;9.238;2023-01-29T13:39:28;99107.03;;;5.67;60.90
21824;BME280;11074;48.596;9.238;2023-01-29T13:41:58;99103.97;;;5.64;59.68
21824;BME280;11074;48.596;9.238;2023-01-29T13:44:33;99105.03;;;5.69;60.45
21824;BME280;11074;48.596;9.238;2023-01-29T13:47:07;99104.38;;;5.67;60.95
21824;BME280;11074;48.596;9.238;2023-01-29T13:49:58;99104.81;;;5.71;60.46
21824;BME280;11074;48.596;9.238;2023-01-29T13:52:43;99098.31;;;5.73;60.90
21824;BME280;11074;48.596;9.238;2023-01-29T14:06:00;99107.44;;;6.18;60.14
21824;BME280;11074;48.596;9.238;2023-01-29T14:08:42;99105.88;;;6.37;59.07
21824;BME280;11074;48.596;9.238;2023-01-29T14:13:45;99118.53;;;6.35;58.92
21824;BME280;11074;48.596;9.238;2023-01-29T14:18:59;99108.88;;;6.21;59.27
21824;BME280;11074;48.596;9.238;2023-01-29T14:21:30;99120.34;;;6.15;59.69
21824;BME280;11074;48.596;9.238;2023-01-29T14:24:16;99119.50;;;6.14;59.03
21824;BME280;11074;48.596;9.238;2023-01-29T14:26:46;99123.16;;;6.06;60.24
21824;BME280;11074;48.596;9.238;2023-01-29T14:31:56;99126.38;;;5.95;60.76
21824;BME280;11074;48.596;9.238;2023-01-29T14:37:19;99123.28;;;5.85;61.37
21824;BME280;11074;48.596;9.238;2023-01-29T14:39:58;99118.97;;;5.84;60.82
21824;BME280;11074;48.596;9.238;2023-01-29T14:42:56;99120.97;;;5.76;60.91
21824;BME280;11074;48.596;9.238;2023-01-29T14:45:32;99118.50;;;5.74;60.13
21824;BME280;11074;48.596;9.238;2023-01-29T14:53:29;99114.38;;;5.65;61.31
21824;BME280;11074;48.596;9.238;2023-01-29T14:55:58;99115.41;;;5.64;61.61
21824;BME280;11074;48.596;9.238;2023-01-29T14:58:44;99118.03;;;5.58;60.58
21824;BME280;11074;48.596;9.238;2023-01-29T15:01:37;99119.66;;;5.59;61.71
21824;BME280;11074;48.596;9.238;2023-01-29T15:04:16;99119.03;;;5.57;61.80
21824;BME280;11074;48.596;9.238;2023-01-29T15:07:00;99128.19;;;5.54;61.89
21824;BME280;11074;48.596;9.238;2023-01-29T15:12:20;99110.81;;;5.45;62.68
21824;BME280;11074;48.596;9.238;2023-01-29T15:17:58;99096.97;;;5.49;61.66
21824;BME280;11074;48.596;9.238;2023-01-29T15:20:37;99104.56;;;5.59;62.88
21824;BME280;11074;48.596;9.238;2023-01-29T15:23:23;99106.63;;;5.64;62.56
21824;BME280;11074;48.596;9.238;2023-01-29T15:25:54;99101.94;;;5.66;62.38
21824;BME280;11074;48.596;9.238;2023-01-29T15:28:20;99098.25;;;5.60;62.63
21824;BME280;11074;48.596;9.238;2023-01-29T15:30:54;99112.31;;;5.61;62.77
21824;BME280;11074;48.596;9.238;2023-01-29T15:33:20;99104.31;;;5.54;62.29
21824;BME280;11074;48.596;9.238;2023-01-29T15:35:46;99100.06;;;5.53;62.41
21824;BME280;11074;48.596;9.238;2023-01-29T15:38:22;99103.50;;;5.53;63.24
21824;BME280;11074;48.596;9.238;2023-01-29T15:41:00;99099.19;;;5.46;63.26
21824;BME280;11074;48.596;9.238;2023-01-29T15:43:34;99107.28;;;5.31;63.15
21824;BME280;11074;48.596;9.238;2023-01-29T15:46:24;99105.41;;;5.25;63.26